< < Back
Terminal Aerodrome Forecast


Current Version              Previous Versions:   1  2  3  4  5  6  7  8  9  

Terminal Aerodrome Forecast

595
FTUS42 KCAE 041457 AAB
TAFAGS
TAF AMD
KAGS 041457Z 0415/0512 27009KT 6SM -SHRA BKN040
     FM041800 27012G22KT P6SM VCTS SCT045CB BKN250
     FM050000 25009KT P6SM SCT070 BKN250
     FM050600 VRB03KT P6SM SCT120 BKN250=



Latest METAR

961
SAUS70 KWBC 042000 RRC
MTRAGS
METAR KAGS 041953Z 25007KT 200V300 10SM CLR 32/21 A3003 RMK AO2 SLP166
T03170206


USA.gov is the U.S. government's official web portal to all federal, state and local government web resources and services.